createdAt,value
2023-08-27T00:02:08.763Z,58.23
2023-08-27T00:05:10.730Z,58.97
2023-08-27T00:08:12.590Z,59.44
2023-08-27T00:11:14.339Z,59.34
2023-08-27T00:14:16.041Z,60.23
2023-08-27T00:17:17.709Z,60.37
2023-08-27T00:20:19.578Z,61.44
2023-08-27T00:23:21.327Z,62.29
2023-08-27T00:26:23.043Z,62.46
2023-08-27T00:29:24.797Z,61.79
2023-08-27T00:32:28.093Z,61.57
2023-08-27T00:35:29.804Z,61.37
2023-08-27T00:38:31.769Z,62.23
2023-08-27T00:41:33.473Z,62.23
2023-08-27T00:44:35.116Z,63.16
2023-08-27T00:47:38.669Z,63.83
2023-08-27T00:50:40.548Z,62.56
2023-08-27T00:53:42.371Z,61.41
2023-08-27T00:56:45.673Z,61.06
2023-08-27T00:59:48.070Z,60.65
2023-08-27T01:02:50.292Z,60.40
2023-08-27T01:05:53.063Z,61.15
2023-08-27T01:09:23.996Z,62.16
2023-08-27T01:12:36.676Z,63.16
2023-08-27T01:15:38.712Z,61.24
2023-08-27T01:18:41.063Z,61.29
2023-08-27T01:21:43.331Z,62.37
2023-08-27T01:24:45.034Z,63.04
2023-08-27T01:28:07.302Z,64.29
2023-08-27T01:31:16.022Z,64.13
2023-08-27T01:34:19.491Z,63.38
2023-08-27T01:37:22.012Z,63.49
2023-08-27T01:40:26.457Z,64.37
2023-08-27T01:43:28.170Z,64.09
2023-08-27T01:46:29.798Z,64.47
2023-08-27T01:49:31.608Z,65.06
2023-08-27T01:52:33.744Z,65.42
2023-08-27T01:55:35.532Z,65.79
2023-08-27T01:58:37.270Z,66.96
2023-08-27T02:01:39.112Z,68.27
2023-08-27T02:04:41.151Z,69.01
2023-08-27T02:07:42.889Z,69.59
2023-08-27T02:10:44.805Z,70.11
2023-08-27T02:13:46.499Z,70.81
2023-08-27T02:16:48.823Z,70.85
2023-08-27T02:19:50.916Z,71.31
2023-08-27T02:22:52.614Z,71.61
2023-08-27T02:25:54.578Z,71.88
2023-08-27T02:28:56.213Z,72.07
2023-08-27T02:31:57.939Z,72.20
2023-08-27T02:34:59.662Z,72.60
2023-08-27T02:38:01.366Z,72.72
2023-08-27T02:41:03.354Z,72.81
2023-08-27T02:44:05.242Z,73.00
2023-08-27T02:47:07.293Z,72.92
2023-08-27T02:50:09.432Z,72.85
2023-08-27T02:53:11.687Z,70.25
2023-08-27T02:56:13.370Z,71.88
2023-08-27T02:59:15.363Z,73.56
2023-08-27T03:02:16.974Z,75.18
2023-08-27T03:05:19.928Z,75.65
2023-08-27T03:08:21.682Z,76.85
2023-08-27T03:11:23.397Z,77.23
2023-08-27T03:14:25.098Z,77.57
2023-08-27T03:17:26.890Z,77.68
2023-08-27T03:20:28.538Z,78.43
2023-08-27T03:23:30.191Z,78.24
2023-08-27T03:26:31.870Z,78.32
2023-08-27T03:29:33.697Z,78.43
2023-08-27T03:32:36.217Z,78.40
2023-08-27T03:35:38.001Z,78.75
2023-08-27T03:38:39.647Z,79.34
2023-08-27T03:41:41.302Z,79.23
2023-08-27T03:44:42.887Z,79.85
2023-08-27T03:47:44.957Z,79.94
2023-08-27T03:50:46.736Z,80.00
2023-08-27T03:53:48.392Z,79.57
2023-08-27T03:56:50.126Z,79.68
2023-08-27T03:59:52.007Z,79.87
2023-08-27T04:02:53.729Z,79.81
2023-08-27T04:05:55.440Z,79.75
2023-08-27T04:08:57.839Z,79.76
2023-08-27T04:11:59.618Z,79.79
2023-08-27T04:15:01.343Z,79.33
2023-08-27T04:18:03.319Z,79.29
2023-08-27T04:21:05.571Z,79.26
2023-08-27T04:24:07.751Z,79.38
2023-08-27T04:27:09.553Z,79.33
2023-08-27T04:30:12.383Z,79.18
2023-08-27T04:33:14.114Z,79.30
2023-08-27T04:36:15.902Z,78.95
2023-08-27T04:39:17.608Z,78.98
2023-08-27T04:42:19.653Z,79.14
2023-08-27T04:45:21.325Z,78.85
2023-08-27T04:48:23.063Z,78.50
2023-08-27T04:51:26.407Z,79.00
2023-08-27T04:54:28.363Z,78.38
2023-08-27T04:57:30.052Z,78.65
2023-08-27T05:00:32.837Z,78.52
2023-08-27T05:03:34.538Z,77.99
2023-08-27T05:06:36.638Z,78.31
2023-08-27T05:09:38.524Z,77.17
2023-08-27T05:12:40.360Z,77.09
2023-08-27T05:15:42.027Z,76.23
2023-08-27T05:18:44.064Z,75.96
2023-08-27T05:21:46.142Z,75.71
2023-08-27T05:24:47.929Z,75.64
2023-08-27T05:27:49.626Z,75.23
2023-08-27T05:30:51.360Z,75.14
2023-08-27T05:33:53.126Z,75.18
2023-08-27T05:36:54.996Z,75.24
2023-08-27T05:39:57.031Z,74.95
2023-08-27T05:42:58.990Z,74.95
2023-08-27T05:46:00.702Z,74.98
2023-08-27T05:49:02.763Z,74.23
2023-08-27T05:52:04.704Z,74.21
2023-08-27T05:55:06.540Z,74.20
2023-08-27T05:58:08.195Z,73.48
2023-08-27T06:01:10.036Z,73.47
2023-08-27T06:04:11.908Z,72.75
2023-08-27T06:07:13.566Z,72.80
2023-08-27T06:10:15.772Z,72.59
2023-08-27T06:13:17.797Z,72.83
2023-08-27T06:16:19.796Z,72.26
2023-08-27T06:19:21.529Z,71.98
2023-08-27T06:22:23.296Z,72.55
2023-08-27T06:25:24.962Z,72.28
2023-08-27T06:28:26.564Z,71.28
2023-08-27T06:31:28.566Z,70.80
2023-08-27T06:34:30.270Z,70.50
2023-08-27T06:37:32.525Z,70.35
2023-08-27T06:40:34.187Z,70.06
2023-08-27T06:43:36.136Z,70.29
2023-08-27T06:46:37.815Z,69.98
2023-08-27T06:49:40.231Z,69.44
2023-08-27T06:52:41.910Z,70.28
2023-08-27T06:55:43.648Z,70.17
2023-08-27T06:58:45.369Z,70.33
2023-08-27T07:01:47.183Z,69.88
2023-08-27T07:04:49.052Z,68.82
2023-08-27T07:07:50.982Z,67.98
2023-08-27T07:10:52.645Z,68.32
2023-08-27T07:13:54.801Z,68.08
2023-08-27T07:16:56.715Z,67.74
2023-08-27T07:19:58.463Z,67.45
2023-08-27T07:23:00.180Z,66.31
2023-08-27T07:26:02.308Z,65.67
2023-08-27T07:29:04.039Z,65.52
2023-08-27T07:32:05.824Z,65.68
2023-08-27T07:35:07.910Z,64.63
2023-08-27T07:38:10.009Z,63.63
2023-08-27T07:41:13.258Z,64.64
2023-08-27T07:44:14.932Z,64.66
2023-08-27T07:47:16.927Z,64.22
2023-08-27T07:50:18.666Z,64.28
2023-08-27T07:53:20.471Z,64.70
2023-08-27T07:56:22.158Z,64.15
2023-08-27T07:59:24.178Z,63.16
2023-08-27T08:02:25.974Z,63.43
2023-08-27T08:05:27.776Z,62.93
2023-08-27T08:08:29.855Z,63.31
2023-08-27T08:11:31.912Z,63.07
2023-08-27T08:14:33.761Z,62.58
2023-08-27T08:17:44.873Z,61.67
2023-08-27T08:20:48.728Z,61.68
2023-08-27T08:23:50.756Z,61.58
2023-08-27T08:26:52.418Z,61.67
2023-08-27T08:29:54.868Z,61.07
2023-08-27T08:32:56.673Z,60.51
2023-08-27T08:35:58.430Z,60.45
2023-08-27T08:39:00.271Z,60.27
2023-08-27T08:42:16.575Z,59.70
2023-08-27T08:45:27.344Z,59.53
2023-08-27T08:48:32.678Z,59.04
2023-08-27T08:51:34.591Z,58.22
2023-08-27T08:54:40.768Z,57.35
2023-08-27T08:57:50.717Z,56.74
2023-08-27T09:00:52.622Z,56.65
2023-08-27T09:03:56.368Z,55.67
2023-08-27T09:06:58.593Z,55.61
2023-08-27T09:10:03.067Z,55.60
2023-08-27T09:13:06.035Z,55.28
2023-08-27T09:16:07.853Z,55.51
2023-08-27T09:19:10.222Z,54.35
2023-08-27T09:22:12.140Z,54.09
2023-08-27T09:25:14.506Z,52.97
2023-08-27T09:28:18.066Z,52.40
2023-08-27T09:31:38.982Z,52.63
2023-08-27T09:34:40.675Z,50.95
2023-08-27T09:37:44.277Z,51.28
2023-08-27T09:40:46.183Z,50.10
2023-08-27T09:43:52.669Z,51.54
2023-08-27T09:47:04.791Z,51.11
2023-08-27T09:50:08.661Z,51.35
2023-08-27T09:53:15.888Z,52.10
2023-08-27T09:56:17.546Z,50.09
2023-08-27T09:59:20.014Z,49.58
2023-08-27T10:02:21.729Z,49.48
2023-08-27T10:05:42.502Z,48.81
2023-08-27T10:08:50.719Z,48.62
2023-08-27T10:11:53.141Z,48.47
2023-08-27T10:14:55.595Z,48.64
2023-08-27T10:17:59.564Z,48.12
2023-08-27T10:21:01.868Z,45.99
2023-08-27T10:24:06.429Z,45.65
2023-08-27T10:27:08.374Z,46.14
2023-08-27T10:30:24.360Z,45.55
2023-08-27T10:33:27.963Z,44.43
2023-08-27T10:36:36.449Z,36.11
2023-08-27T10:39:39.504Z,28.51
2023-08-27T10:42:41.596Z,25.23
2023-08-27T10:45:43.343Z,25.02
2023-08-27T10:48:54.076Z,23.29
2023-08-27T10:51:56.911Z,21.89
2023-08-27T10:55:01.655Z,21.40
2023-08-27T10:58:23.315Z,20.44
2023-08-27T11:01:25.601Z,19.78
2023-08-27T11:04:38.322Z,18.63
2023-08-27T11:07:42.031Z,19.35
2023-08-27T11:10:43.771Z,20.08
2023-08-27T11:13:45.563Z,19.95
2023-08-27T11:17:06.113Z,20.20
2023-08-27T11:20:22.258Z,21.25
2023-08-27T11:23:23.962Z,19.76
2023-08-27T11:26:28.557Z,19.90
2023-08-27T11:29:30.883Z,19.01
2023-08-27T11:32:32.695Z,20.07
2023-08-27T11:35:37.494Z,21.13
2023-08-27T11:38:39.166Z,19.87
2023-08-27T11:41:42.662Z,20.42
2023-08-27T11:44:50.103Z,20.79
2023-08-27T11:47:51.854Z,21.37
2023-08-27T11:50:53.592Z,21.78
2023-08-27T11:53:55.503Z,20.72
2023-08-27T11:56:58.430Z,22.11
2023-08-27T12:00:00.080Z,22.80
2023-08-27T12:03:02.014Z,23.08
2023-08-27T12:06:03.795Z,21.87
2023-08-27T12:09:05.458Z,20.95
2023-08-27T12:12:08.583Z,20.24
2023-08-27T12:15:10.821Z,23.21
2023-08-27T12:18:12.538Z,25.82
2023-08-27T12:21:15.113Z,28.61
2023-08-27T12:24:29.173Z,29.93
2023-08-27T12:27:31.078Z,30.63
2023-08-27T12:30:35.922Z,31.00
2023-08-27T12:33:38.980Z,31.43
2023-08-27T12:36:40.635Z,32.50
2023-08-27T12:39:43.520Z,33.32
2023-08-27T12:42:45.216Z,32.96
2023-08-27T12:45:47.035Z,33.06
2023-08-27T12:48:49.004Z,32.94
2023-08-27T12:51:50.793Z,33.04
2023-08-27T12:54:52.633Z,33.32
2023-08-27T12:57:54.676Z,33.55
2023-08-27T13:00:56.693Z,33.27
2023-08-27T13:03:58.880Z,32.88
2023-08-27T13:07:00.644Z,32.63
2023-08-27T13:10:02.459Z,32.50
2023-08-27T13:13:04.296Z,32.15
2023-08-27T13:16:06.073Z,31.87
2023-08-27T13:19:08.214Z,32.23
2023-08-27T13:22:10.058Z,32.21
2023-08-27T13:25:12.022Z,31.80
2023-08-27T13:28:13.987Z,31.90
2023-08-27T13:31:16.548Z,31.87
2023-08-27T13:34:18.323Z,31.51
2023-08-27T13:37:20.007Z,30.90
2023-08-27T13:40:21.756Z,31.35
2023-08-27T13:43:23.519Z,31.36
2023-08-27T13:46:25.337Z,31.16
2023-08-27T13:49:27.020Z,30.76
2023-08-27T13:52:28.997Z,30.40
2023-08-27T13:55:31.171Z,30.08
2023-08-27T13:58:34.275Z,30.20
2023-08-27T14:01:36.561Z,30.51
2023-08-27T14:04:38.310Z,30.49
2023-08-27T14:07:39.954Z,29.33
2023-08-27T14:10:41.625Z,29.61
2023-08-27T14:13:43.322Z,29.18
2023-08-27T14:16:45.599Z,29.00
2023-08-27T14:19:48.018Z,29.31
2023-08-27T14:22:49.682Z,28.98
2023-08-27T14:25:51.513Z,29.20
2023-08-27T14:28:53.351Z,28.98
2023-08-27T14:31:55.018Z,28.97
2023-08-27T14:34:56.769Z,29.21
2023-08-27T14:37:58.602Z,28.96
2023-08-27T14:41:00.852Z,28.85
2023-08-27T14:44:02.940Z,29.26
2023-08-27T14:47:05.132Z,28.63
2023-08-27T14:50:07.674Z,28.07
2023-08-27T14:53:09.712Z,27.87
2023-08-27T14:56:11.727Z,28.24
2023-08-27T14:59:31.326Z,28.17
2023-08-27T15:02:33.053Z,28.61
2023-08-27T15:05:35.356Z,28.63
2023-08-27T15:08:37.845Z,29.06
2023-08-27T15:11:39.598Z,29.41
2023-08-27T15:14:41.262Z,29.77
2023-08-27T15:17:43.423Z,30.04
2023-08-27T15:20:47.228Z,29.33
2023-08-27T15:23:49.044Z,28.64
2023-08-27T15:26:50.677Z,28.44
2023-08-27T15:29:55.452Z,28.59
2023-08-27T15:32:57.566Z,29.09
2023-08-27T15:35:59.348Z,29.59
2023-08-27T15:39:01.097Z,29.17
2023-08-27T15:42:03.300Z,29.65
2023-08-27T15:45:05.770Z,29.65
2023-08-27T15:48:07.530Z,29.40
2023-08-27T15:51:09.355Z,30.23
2023-08-27T15:54:11.028Z,30.11
2023-08-27T15:57:12.755Z,30.64
2023-08-27T16:00:14.890Z,30.63
2023-08-27T16:03:38.071Z,30.58
2023-08-27T16:06:39.886Z,30.64
2023-08-27T16:09:42.031Z,30.53
2023-08-27T16:12:43.698Z,29.72
2023-08-27T16:15:48.256Z,29.80
2023-08-27T16:18:53.194Z,29.86
2023-08-27T16:21:54.902Z,29.71
2023-08-27T16:24:56.697Z,30.25
2023-08-27T16:27:58.916Z,30.57
2023-08-27T16:31:02.260Z,31.11
2023-08-27T16:34:04.211Z,31.66
2023-08-27T16:37:05.841Z,31.21
2023-08-27T16:40:08.408Z,31.40
2023-08-27T16:43:10.439Z,31.66
2023-08-27T16:46:12.246Z,31.56
2023-08-27T16:49:14.134Z,32.08
2023-08-27T16:52:15.962Z,32.53
2023-08-27T16:55:17.885Z,34.57
2023-08-27T16:58:19.562Z,35.47
2023-08-27T17:01:24.280Z,34.92
2023-08-27T17:04:26.592Z,34.78
2023-08-27T17:07:28.308Z,37.15
2023-08-27T17:10:30.290Z,40.10
2023-08-27T17:13:31.976Z,39.60
2023-08-27T17:16:33.758Z,39.95
2023-08-27T17:19:35.481Z,37.59
2023-08-27T17:22:37.614Z,38.35
2023-08-27T17:25:39.255Z,39.08
2023-08-27T17:28:40.899Z,38.73
2023-08-27T17:31:42.757Z,38.20
2023-08-27T17:34:44.453Z,38.61
2023-08-27T17:37:57.927Z,40.08
2023-08-27T17:40:59.693Z,40.99
2023-08-27T17:44:01.418Z,41.62
2023-08-27T17:47:03.897Z,42.45
2023-08-27T17:50:06.404Z,41.08
2023-08-27T17:53:08.375Z,42.78
2023-08-27T17:56:10.055Z,42.67
2023-08-27T17:59:12.077Z,43.48
2023-08-27T18:02:13.940Z,43.29
2023-08-27T18:05:16.275Z,43.29
2023-08-27T18:08:18.729Z,43.21
2023-08-27T18:11:20.445Z,44.80
2023-08-27T18:14:22.287Z,44.98
2023-08-27T18:17:24.106Z,45.25
2023-08-27T18:20:25.933Z,46.27
2023-08-27T18:23:27.651Z,45.14
2023-08-27T18:26:29.565Z,45.10
2023-08-27T18:29:31.358Z,46.69
2023-08-27T18:32:33.093Z,45.84
2023-08-27T18:35:34.855Z,46.24
2023-08-27T18:38:36.682Z,46.34
2023-08-27T18:41:38.783Z,47.06
2023-08-27T18:44:40.842Z,47.07
2023-08-27T18:47:42.617Z,47.28
2023-08-27T18:50:44.963Z,47.83
2023-08-27T18:54:05.919Z,48.21
2023-08-27T18:57:07.979Z,49.05
2023-08-27T19:00:10.083Z,48.22
2023-08-27T19:03:12.207Z,48.51
2023-08-27T19:06:13.948Z,47.79
2023-08-27T19:09:15.654Z,48.26
2023-08-27T19:12:18.005Z,47.86
2023-08-27T19:15:19.764Z,48.47
2023-08-27T19:18:21.518Z,48.40
2023-08-27T19:21:23.285Z,48.52
2023-08-27T19:24:24.993Z,48.21
2023-08-27T19:27:26.965Z,48.84
2023-08-27T19:30:30.880Z,48.81
2023-08-27T19:33:32.677Z,48.58
2023-08-27T19:36:34.526Z,48.97
2023-08-27T19:39:36.222Z,48.89
2023-08-27T19:42:38.692Z,48.83
2023-08-27T19:45:40.547Z,48.42
2023-08-27T19:48:42.875Z,48.35
2023-08-27T19:51:44.754Z,49.58
2023-08-27T19:54:46.722Z,49.69
2023-08-27T19:57:48.763Z,50.31
2023-08-27T20:00:50.569Z,50.42
2023-08-27T20:03:52.366Z,50.58
2023-08-27T20:06:54.154Z,51.64
2023-08-27T20:09:57.562Z,51.96
2023-08-27T20:12:59.645Z,52.83
2023-08-27T20:16:02.260Z,52.37
2023-08-27T20:19:04.000Z,52.09
2023-08-27T20:22:06.062Z,52.44
2023-08-27T20:25:08.199Z,53.55
2023-08-27T20:28:10.199Z,53.59
2023-08-27T20:31:11.962Z,53.61
2023-08-27T20:34:14.818Z,53.62
2023-08-27T20:37:16.617Z,54.27
2023-08-27T20:40:18.431Z,55.62
2023-08-27T20:43:20.674Z,54.86
2023-08-27T20:46:22.822Z,54.29
2023-08-27T20:49:24.567Z,54.31
2023-08-27T20:52:26.321Z,54.72
2023-08-27T20:55:28.042Z,54.28
2023-08-27T20:58:29.811Z,55.24
2023-08-27T21:01:33.544Z,54.06
2023-08-27T21:04:35.349Z,53.89
2023-08-27T21:07:38.905Z,54.50
2023-08-27T21:10:40.740Z,53.96
2023-08-27T21:13:42.397Z,53.68
2023-08-27T21:16:44.274Z,54.14
2023-08-27T21:19:45.978Z,55.14
2023-08-27T21:22:47.764Z,56.56
2023-08-27T21:25:50.038Z,58.66
2023-08-27T21:28:51.811Z,58.26
2023-08-27T21:31:55.106Z,57.97
2023-08-27T21:34:57.005Z,57.39
2023-08-27T21:37:58.683Z,56.60
2023-08-27T21:41:00.506Z,56.84
2023-08-27T21:44:02.192Z,57.24
2023-08-27T21:47:04.742Z,57.54
2023-08-27T21:50:07.146Z,57.75
2023-08-27T21:53:09.040Z,57.93
2023-08-27T21:56:10.728Z,57.96
2023-08-27T21:59:12.373Z,57.85
2023-08-27T22:02:14.875Z,58.12
2023-08-27T22:05:17.878Z,58.26
2023-08-27T22:08:19.530Z,58.78
2023-08-27T22:11:21.189Z,58.65
2023-08-27T22:14:22.884Z,58.77
2023-08-27T22:17:25.219Z,58.63
2023-08-27T22:20:27.002Z,58.83
2023-08-27T22:23:28.828Z,58.52
2023-08-27T22:26:30.533Z,58.80
2023-08-27T22:29:32.721Z,58.49
2023-08-27T22:32:34.827Z,58.85
2023-08-27T22:35:36.689Z,59.74
2023-08-27T22:38:38.351Z,60.87
2023-08-27T22:41:40.340Z,61.19
2023-08-27T22:44:42.044Z,61.79
2023-08-27T22:47:43.940Z,62.38
2023-08-27T22:50:45.966Z,62.98
2023-08-27T22:53:48.047Z,63.04
2023-08-27T22:56:49.841Z,63.42
2023-08-27T22:59:51.561Z,63.36
2023-08-27T23:02:53.351Z,62.42
2023-08-27T23:05:55.230Z,61.82
2023-08-27T23:08:57.766Z,62.31
2023-08-27T23:11:59.510Z,62.70
2023-08-27T23:15:01.178Z,63.03
2023-08-27T23:18:03.068Z,63.67
2023-08-27T23:21:05.130Z,65.49
2023-08-27T23:24:06.957Z,68.26
2023-08-27T23:27:09.300Z,68.08
2023-08-27T23:30:11.364Z,67.79
2023-08-27T23:33:13.030Z,68.46
2023-08-27T23:36:14.766Z,68.46
2023-08-27T23:39:16.414Z,68.18
2023-08-27T23:42:18.181Z,67.23
2023-08-27T23:45:19.924Z,67.25
2023-08-27T23:48:21.759Z,67.25
2023-08-27T23:51:23.703Z,67.06
2023-08-27T23:54:25.972Z,66.03
2023-08-27T23:57:29.173Z,65.83
